Terminal Aerodrome Forecast
Issued by NWS

Home | Current Version | Previous Version | Text Only | Print | Product List | Glossary On
Versions: 1 2 3 4 5 6 7 8 9 10 11 12 13 14 15 16 17 18
000
FTUS41 KGYX 172324
TAFMHT
TAF
KMHT 172324Z 1800/1824 24004KT P6SM FEW060 BKN250
     FM180200 00000KT P6SM SCT120 BKN250
     FM180900 00000KT P6SM VCSH BKN060
     FM181500 15005KT 4SM -SHRA OVC019
     FM181800 14007KT 2SM -RA BR OVC007=

USA.gov is the U.S. government's official web portal to all federal, state and local government web resources and services.